createdAt,value
2023-04-22T00:00:11.983Z,9.74
2023-04-22T00:01:08.775Z,9.12
2023-04-22T00:02:06.524Z,9.38
2023-04-22T00:03:04.450Z,9.58
2023-04-22T00:04:02.271Z,9.34
2023-04-22T00:04:59.567Z,9.74
2023-04-22T00:05:56.796Z,9.69
2023-04-22T00:06:53.775Z,9.71
2023-04-22T00:07:50.732Z,9.70
2023-04-22T00:08:47.577Z,9.23
2023-04-22T00:09:45.774Z,8.51
2023-04-22T00:10:42.599Z,9.50
2023-04-22T00:11:39.416Z,9.25
2023-04-22T00:12:36.186Z,9.63
2023-04-22T00:13:32.979Z,9.72
2023-04-22T00:14:29.753Z,9.28
2023-04-22T00:15:27.124Z,9.18
2023-04-22T00:16:24.019Z,9.97
2023-04-22T00:17:20.982Z,9.93
2023-04-22T00:18:17.843Z,9.77
2023-04-22T00:19:14.535Z,9.80
2023-04-22T00:20:11.746Z,10.08
2023-04-22T00:21:08.687Z,9.43
2023-04-22T00:22:05.723Z,9.79
2023-04-22T00:23:02.496Z,9.58
2023-04-22T00:23:59.259Z,9.67
2023-04-22T00:24:56.167Z,9.62
2023-04-22T00:25:52.926Z,9.51
2023-04-22T00:26:49.708Z,8.83
2023-04-22T00:27:46.633Z,9.63
2023-04-22T00:28:43.391Z,9.87
2023-04-22T00:29:40.571Z,8.42
2023-04-22T00:30:37.534Z,9.99
2023-04-22T00:31:34.495Z,9.56
2023-04-22T00:32:31.298Z,10.21
2023-04-22T00:33:28.089Z,9.89
2023-04-22T00:34:24.902Z,10.17
2023-04-22T00:35:21.739Z,9.99
2023-04-22T00:36:18.518Z,9.42
2023-04-22T00:37:15.573Z,9.50
2023-04-22T00:38:12.830Z,9.31
2023-04-22T00:39:09.628Z,9.77
2023-04-22T00:40:07.481Z,9.82
2023-04-22T00:41:05.139Z,9.53
2023-04-22T00:42:03.392Z,9.02
2023-04-22T00:43:00.837Z,9.18
2023-04-22T00:43:58.520Z,9.38
2023-04-22T00:44:57.291Z,9.49
2023-04-22T00:45:53.972Z,9.57
2023-04-22T00:46:51.587Z,9.60
2023-04-22T00:47:49.288Z,9.67
2023-04-22T00:48:46.855Z,9.18
2023-04-22T00:49:43.623Z,9.56
2023-04-22T00:50:40.528Z,9.04
2023-04-22T00:51:37.271Z,9.25
2023-04-22T00:52:34.202Z,9.26
2023-04-22T00:53:33.284Z,8.94
2023-04-22T00:54:32.152Z,9.25
2023-04-22T00:55:29.040Z,8.72
2023-04-22T00:56:27.712Z,8.97
2023-04-22T00:57:24.524Z,9.36
2023-04-22T00:58:25.793Z,9.28
2023-04-22T00:59:25.593Z,8.69
2023-04-22T01:00:27.284Z,9.33
2023-04-22T01:01:25.126Z,9.49
2023-04-22T01:02:22.138Z,8.58
2023-04-22T01:03:20.846Z,9.28
2023-04-22T01:04:19.015Z,9.04
2023-04-22T01:05:16.721Z,8.01
2023-04-22T01:06:13.931Z,8.65
2023-04-22T01:07:13.181Z,8.65
2023-04-22T01:08:10.061Z,8.34
2023-04-22T01:09:07.732Z,8.67
2023-04-22T01:10:05.114Z,8.25
2023-04-22T01:11:02.662Z,7.68
2023-04-22T01:11:59.460Z,8.34
2023-04-22T01:12:56.275Z,8.71
2023-04-22T01:13:53.533Z,8.44
2023-04-22T01:14:50.449Z,7.94
2023-04-22T01:15:48.155Z,8.18
2023-04-22T01:16:45.886Z,8.56
2023-04-22T01:17:42.795Z,8.49
2023-04-22T01:18:39.552Z,8.57
2023-04-22T01:19:36.477Z,8.27
2023-04-22T01:20:34.156Z,8.02
2023-04-22T01:21:33.694Z,8.31
2023-04-22T01:22:37.412Z,8.14
2023-04-22T01:23:34.396Z,8.75
2023-04-22T01:24:31.582Z,8.55
2023-04-22T01:25:29.069Z,8.80
2023-04-22T01:26:25.934Z,8.52
2023-04-22T01:27:23.122Z,8.85
2023-04-22T01:28:19.943Z,8.91
2023-04-22T01:29:16.969Z,8.80
2023-04-22T01:30:13.905Z,8.90
2023-04-22T01:31:10.709Z,8.69
2023-04-22T01:32:07.531Z,8.54
2023-04-22T01:33:04.689Z,8.39
2023-04-22T01:34:02.158Z,8.38
2023-04-22T01:34:59.365Z,8.08
2023-04-22T01:35:56.237Z,8.53
2023-04-22T01:36:52.976Z,7.91
2023-04-22T01:37:50.851Z,8.63
2023-04-22T01:38:47.815Z,8.42
2023-04-22T01:39:45.711Z,8.09
2023-04-22T01:40:42.479Z,8.48
2023-04-22T01:41:39.811Z,8.65
2023-04-22T01:42:36.724Z,7.88
2023-04-22T01:43:33.872Z,8.54
2023-04-22T01:44:30.657Z,8.40
2023-04-22T01:45:28.517Z,8.41
2023-04-22T01:46:25.467Z,8.52
2023-04-22T01:47:22.310Z,8.61
2023-04-22T01:48:19.313Z,7.78
2023-04-22T01:49:16.438Z,7.88
2023-04-22T01:50:13.210Z,8.51
2023-04-22T01:51:10.062Z,8.27
2023-04-22T01:52:06.933Z,8.39
2023-04-22T01:53:04.092Z,8.36
2023-04-22T01:54:03.951Z,8.35
2023-04-22T01:55:02.609Z,8.33
2023-04-22T01:56:00.229Z,8.33
2023-04-22T01:56:58.655Z,8.48
2023-04-22T01:57:55.564Z,8.54
2023-04-22T01:58:52.378Z,8.40
2023-04-22T01:59:49.171Z,8.47
2023-04-22T02:00:45.996Z,8.41
2023-04-22T02:01:42.767Z,8.42
2023-04-22T02:02:39.974Z,8.40
2023-04-22T02:03:37.844Z,8.53
2023-04-22T02:04:34.729Z,8.29
2023-04-22T02:05:31.628Z,8.44
2023-04-22T02:06:28.380Z,8.55
2023-04-22T02:07:25.678Z,8.24
2023-04-22T02:08:22.399Z,8.32
2023-04-22T02:09:19.191Z,8.49
2023-04-22T02:10:15.890Z,8.40
2023-04-22T02:11:12.642Z,8.64
2023-04-22T02:12:09.509Z,8.39
2023-04-22T02:13:06.459Z,8.82
2023-04-22T02:14:03.371Z,8.20
2023-04-22T02:15:00.264Z,8.70
2023-04-22T02:15:57.072Z,8.90
2023-04-22T02:16:54.484Z,9.28
2023-04-22T02:17:51.192Z,9.39
2023-04-22T02:18:47.964Z,8.89
2023-04-22T02:19:44.761Z,8.99
2023-04-22T02:20:41.593Z,8.80
2023-04-22T02:21:38.448Z,8.82
2023-04-22T02:22:35.706Z,8.78
2023-04-22T02:23:33.205Z,8.79
2023-04-22T02:24:30.071Z,8.98
2023-04-22T02:25:29.080Z,9.35
2023-04-22T02:26:26.301Z,8.84
2023-04-22T02:27:23.753Z,8.94
2023-04-22T02:28:20.590Z,8.82
2023-04-22T02:29:17.601Z,9.12
2023-04-22T02:30:14.543Z,9.31
2023-04-22T02:31:11.280Z,9.43
2023-04-22T02:32:08.103Z,9.19
2023-04-22T02:33:05.031Z,8.83
2023-04-22T02:34:01.737Z,8.75
2023-04-22T02:34:58.414Z,8.51
2023-04-22T02:35:55.502Z,8.19
2023-04-22T02:36:52.555Z,9.00
2023-04-22T02:37:49.311Z,8.97
2023-04-22T02:38:46.436Z,9.23
2023-04-22T02:39:43.155Z,9.28
2023-04-22T02:40:39.975Z,9.21
2023-04-22T02:41:36.879Z,9.08
2023-04-22T02:42:33.718Z,9.46
2023-04-22T02:43:30.562Z,9.60
2023-04-22T02:44:27.446Z,9.64
2023-04-22T02:45:24.273Z,9.60
2023-04-22T02:46:21.092Z,9.52
2023-04-22T02:47:17.922Z,9.54
2023-04-22T02:48:14.665Z,8.96
2023-04-22T02:49:11.391Z,9.23
2023-04-22T02:50:08.735Z,9.10
2023-04-22T02:51:06.418Z,9.18
2023-04-22T02:52:03.190Z,9.11
2023-04-22T02:53:00.010Z,8.58
2023-04-22T02:53:56.775Z,8.34
2023-04-22T02:54:53.576Z,8.55
2023-04-22T02:55:52.349Z,8.52
2023-04-22T02:56:49.122Z,8.79
2023-04-22T02:57:46.117Z,8.81
2023-04-22T02:58:42.884Z,8.06
2023-04-22T02:59:39.875Z,8.08
2023-04-22T03:00:37.025Z,9.31
2023-04-22T03:01:33.878Z,8.90
2023-04-22T03:02:30.791Z,9.39
2023-04-22T03:03:27.761Z,9.38
2023-04-22T03:04:25.777Z,9.41
2023-04-22T03:05:22.835Z,8.59
2023-04-22T03:06:19.680Z,9.22
2023-04-22T03:07:16.433Z,8.54
2023-04-22T03:08:13.265Z,8.91
2023-04-22T03:09:09.989Z,8.77
2023-04-22T03:10:07.533Z,8.62
2023-04-22T03:11:05.241Z,8.45
2023-04-22T03:12:02.816Z,8.45
2023-04-22T03:12:59.574Z,8.50
2023-04-22T03:13:56.395Z,8.90
2023-04-22T03:14:53.064Z,9.25
2023-04-22T03:15:49.966Z,8.93
2023-04-22T03:16:46.768Z,9.13
2023-04-22T03:17:43.704Z,8.57
2023-04-22T03:18:40.555Z,8.65
2023-04-22T03:19:37.408Z,8.56
2023-04-22T03:20:35.305Z,8.52
2023-04-22T03:21:32.432Z,8.58
2023-04-22T03:22:29.285Z,8.44
2023-04-22T03:23:26.037Z,8.61
2023-04-22T03:24:22.865Z,8.73
2023-04-22T03:25:19.673Z,8.97
2023-04-22T03:26:16.443Z,9.23
2023-04-22T03:27:13.528Z,9.44
2023-04-22T03:28:10.611Z,9.41
2023-04-22T03:29:07.723Z,9.34
2023-04-22T03:30:05.907Z,9.31
2023-04-22T03:31:02.690Z,9.04
2023-04-22T03:31:59.521Z,9.38
2023-04-22T03:32:56.875Z,9.23
2023-04-22T03:33:53.717Z,9.22
2023-04-22T03:34:50.772Z,8.86
2023-04-22T03:35:51.104Z,8.76
2023-04-22T03:36:47.877Z,8.18
2023-04-22T03:37:44.632Z,8.52
2023-04-22T03:38:41.391Z,8.63
2023-04-22T03:39:38.438Z,8.37
2023-04-22T03:40:35.491Z,8.48
2023-04-22T03:41:32.299Z,8.55
2023-04-22T03:42:29.049Z,8.78
2023-04-22T03:43:25.948Z,8.85
2023-04-22T03:44:22.702Z,9.30
2023-04-22T03:45:19.532Z,8.72
2023-04-22T03:46:17.321Z,8.72
2023-04-22T03:47:14.148Z,8.42
2023-04-22T03:48:11.274Z,8.85
2023-04-22T03:49:08.040Z,8.68
2023-04-22T03:50:05.578Z,8.38
2023-04-22T03:51:02.752Z,8.57
2023-04-22T03:51:59.520Z,8.66
2023-04-22T03:52:56.313Z,9.14
2023-04-22T03:53:53.108Z,9.25
2023-04-22T03:54:49.932Z,9.44
2023-04-22T03:55:47.211Z,9.26
2023-04-22T03:56:44.026Z,8.81
2023-04-22T03:57:40.996Z,8.94
2023-04-22T03:58:37.791Z,8.69
2023-04-22T03:59:34.580Z,8.97
2023-04-22T04:00:31.698Z,8.81
2023-04-22T04:01:28.449Z,9.43
2023-04-22T04:02:25.503Z,9.69
2023-04-22T04:03:22.565Z,9.41
2023-04-22T04:04:20.414Z,9.25
2023-04-22T04:05:17.770Z,9.09
2023-04-22T04:06:14.585Z,8.80
2023-04-22T04:07:11.329Z,9.58
2023-04-22T04:08:08.036Z,9.47
2023-04-22T04:09:05.788Z,9.39
2023-04-22T04:10:02.909Z,8.93
2023-04-22T04:10:59.614Z,8.92
2023-04-22T04:11:56.787Z,9.25
2023-04-22T04:12:53.590Z,9.12
2023-04-22T04:13:50.666Z,9.24
2023-04-22T04:14:47.494Z,9.15
2023-04-22T04:15:44.688Z,9.16
2023-04-22T04:16:41.598Z,9.24
2023-04-22T04:17:38.409Z,8.44
2023-04-22T04:18:35.226Z,8.95
2023-04-22T04:19:31.968Z,9.14
2023-04-22T04:20:29.003Z,8.88
2023-04-22T04:21:26.889Z,9.20
2023-04-22T04:22:30.230Z,9.29
2023-04-22T04:23:27.216Z,9.47
2023-04-22T04:24:24.121Z,9.69
2023-04-22T04:25:24.844Z,9.22
2023-04-22T04:26:21.648Z,9.67
2023-04-22T04:27:18.482Z,9.37
2023-04-22T04:28:17.756Z,9.96
2023-04-22T04:29:14.571Z,9.72
2023-04-22T04:30:11.567Z,9.73
2023-04-22T04:31:08.402Z,9.28
2023-04-22T04:32:05.604Z,9.58
2023-04-22T04:33:11.370Z,9.62
2023-04-22T04:34:10.140Z,9.60
2023-04-22T04:35:07.309Z,9.82
2023-04-22T04:36:10.876Z,9.99
2023-04-22T04:37:07.997Z,9.88
2023-04-22T04:38:08.825Z,9.72
2023-04-22T04:39:09.564Z,9.67
2023-04-22T04:40:15.105Z,9.23
2023-04-22T04:41:11.937Z,9.42
2023-04-22T04:42:09.743Z,9.51
2023-04-22T04:43:08.538Z,8.72
2023-04-22T04:44:05.405Z,9.78
2023-04-22T04:45:04.370Z,9.63
2023-04-22T04:46:01.227Z,9.72
2023-04-22T04:47:00.470Z,10.08
2023-04-22T04:47:57.309Z,10.05
2023-04-22T04:48:55.842Z,9.72
2023-04-22T04:49:55.473Z,9.71
2023-04-22T04:50:54.291Z,10.44
2023-04-22T04:51:53.170Z,10.28
2023-04-22T04:52:50.379Z,10.40
2023-04-22T04:53:47.282Z,10.05
2023-04-22T04:54:47.047Z,10.17
2023-04-22T04:55:46.117Z,10.04
2023-04-22T04:56:43.329Z,9.99
2023-04-22T04:57:42.248Z,10.46
2023-04-22T04:58:39.019Z,10.11
2023-04-22T04:59:37.531Z,10.88
2023-04-22T05:00:34.492Z,10.24
2023-04-22T05:01:33.616Z,10.74
2023-04-22T05:02:30.598Z,10.49
2023-04-22T05:03:27.841Z,10.93
2023-04-22T05:04:30.887Z,10.90
2023-04-22T05:05:30.487Z,10.88
2023-04-22T05:06:27.302Z,10.88
2023-04-22T05:07:24.082Z,11.05
2023-04-22T05:08:20.780Z,10.70
2023-04-22T05:09:17.754Z,10.47
2023-04-22T05:10:14.785Z,10.43
2023-04-22T05:11:11.586Z,10.34
2023-04-22T05:12:08.487Z,9.95
2023-04-22T05:13:05.517Z,10.02
2023-04-22T05:14:02.955Z,9.91
2023-04-22T05:14:59.964Z,9.94
2023-04-22T05:15:57.048Z,10.55
2023-04-22T05:16:53.970Z,10.63
2023-04-22T05:17:50.865Z,11.29
2023-04-22T05:18:47.697Z,11.30
2023-04-22T05:19:44.674Z,10.70
2023-04-22T05:20:41.507Z,10.96
2023-04-22T05:21:38.249Z,10.57
2023-04-22T05:22:35.232Z,10.82
2023-04-22T05:23:32.068Z,11.01
2023-04-22T05:24:28.869Z,10.73
2023-04-22T05:25:25.759Z,10.99
2023-04-22T05:26:22.486Z,11.32
2023-04-22T05:27:19.300Z,11.25
2023-04-22T05:28:16.044Z,11.65
2023-04-22T05:29:12.852Z,12.47
2023-04-22T05:30:10.553Z,12.17
2023-04-22T05:31:07.438Z,11.64
2023-04-22T05:32:04.398Z,12.04
2023-04-22T05:33:01.384Z,11.78
2023-04-22T05:33:58.150Z,11.51
2023-04-22T05:34:54.934Z,11.35
2023-04-22T05:35:52.447Z,11.30
2023-04-22T05:36:49.466Z,11.42
2023-04-22T05:37:46.206Z,11.50
2023-04-22T05:38:42.977Z,11.46
2023-04-22T05:39:40.742Z,11.51
2023-04-22T05:40:37.778Z,11.47
2023-04-22T05:41:34.692Z,11.75
2023-04-22T05:42:32.545Z,11.40
2023-04-22T05:43:29.293Z,10.86
2023-04-22T05:44:26.061Z,11.44
2023-04-22T05:45:23.013Z,12.05
2023-04-22T05:46:19.975Z,11.75
2023-04-22T05:47:16.874Z,12.08
2023-04-22T05:48:13.657Z,12.28
2023-04-22T05:49:10.680Z,12.57
2023-04-22T05:50:07.995Z,12.08
2023-04-22T05:51:04.770Z,12.19
2023-04-22T05:52:01.502Z,12.74
2023-04-22T05:52:58.309Z,13.11
2023-04-22T05:53:55.061Z,12.52
2023-04-22T05:54:51.893Z,11.88
2023-04-22T05:55:48.819Z,12.63
2023-04-22T05:56:45.802Z,12.54
2023-04-22T05:57:42.580Z,12.36
2023-04-22T05:58:39.381Z,11.73
2023-04-22T05:59:36.090Z,11.69
2023-04-22T06:00:32.820Z,11.65
2023-04-22T06:01:29.699Z,11.45
2023-04-22T06:02:26.959Z,11.45
2023-04-22T06:03:24.088Z,11.88
2023-04-22T06:04:21.223Z,11.69
2023-04-22T06:05:18.391Z,12.08
2023-04-22T06:06:15.333Z,12.44
2023-04-22T06:07:12.214Z,11.89
2023-04-22T06:08:08.987Z,12.41
2023-04-22T06:09:07.227Z,12.18
2023-04-22T06:10:07.139Z,12.44
2023-04-22T06:11:03.869Z,12.27
2023-04-22T06:12:03.972Z,12.14
2023-04-22T06:13:01.323Z,12.49
2023-04-22T06:13:58.056Z,12.91
2023-04-22T06:14:54.749Z,12.81
2023-04-22T06:15:51.525Z,12.66
2023-04-22T06:16:50.333Z,12.64
2023-04-22T06:17:49.194Z,12.05
2023-04-22T06:18:45.973Z,12.50
2023-04-22T06:19:42.719Z,12.32
2023-04-22T06:20:39.981Z,13.01
2023-04-22T06:21:38.676Z,12.38
2023-04-22T06:22:35.509Z,12.90
2023-04-22T06:23:35.318Z,12.96
2023-04-22T06:24:34.631Z,13.01
2023-04-22T06:25:34.135Z,13.03
2023-04-22T06:26:31.119Z,13.24
2023-04-22T06:27:27.868Z,13.15
2023-04-22T06:28:24.676Z,13.11
2023-04-22T06:29:21.555Z,11.72
2023-04-22T06:30:18.353Z,12.94
2023-04-22T06:31:15.116Z,13.53
2023-04-22T06:32:11.933Z,13.67
2023-04-22T06:33:08.741Z,13.72
2023-04-22T06:34:05.955Z,13.67
2023-04-22T06:35:02.795Z,13.54
2023-04-22T06:36:00.047Z,13.90
2023-04-22T06:36:57.417Z,13.32
2023-04-22T06:37:54.564Z,13.34
2023-04-22T06:38:51.412Z,13.82
2023-04-22T06:39:48.181Z,13.48
2023-04-22T06:40:44.883Z,13.84
2023-04-22T06:41:45.548Z,13.71
2023-04-22T06:42:44.720Z,12.97
2023-04-22T06:43:41.579Z,13.46
2023-04-22T06:44:38.362Z,13.51
2023-04-22T06:45:35.716Z,13.60
2023-04-22T06:46:39.062Z,14.13
2023-04-22T06:47:35.977Z,13.92
2023-04-22T06:48:34.727Z,14.26
2023-04-22T06:49:31.618Z,14.53
2023-04-22T06:50:28.496Z,13.61
2023-04-22T06:51:25.494Z,14.61
2023-04-22T06:52:24.121Z,14.21
2023-04-22T06:53:21.037Z,13.99
2023-04-22T06:54:17.830Z,14.21
2023-04-22T06:55:14.578Z,14.28
2023-04-22T06:56:11.568Z,14.36
2023-04-22T06:57:08.408Z,14.58
2023-04-22T06:58:08.005Z,15.05
2023-04-22T06:59:04.919Z,15.25
2023-04-22T07:00:01.887Z,15.01
2023-04-22T07:00:58.703Z,15.03
2023-04-22T07:01:55.633Z,14.79
2023-04-22T07:02:52.856Z,14.58
2023-04-22T07:03:49.884Z,14.53
2023-04-22T07:04:46.794Z,13.86
2023-04-22T07:05:43.787Z,14.89
2023-04-22T07:06:40.792Z,14.79
2023-04-22T07:07:37.635Z,14.52
2023-04-22T07:08:34.400Z,13.90
2023-04-22T07:09:31.163Z,13.69
2023-04-22T07:10:27.895Z,14.99
2023-04-22T07:11:24.685Z,15.35
2023-04-22T07:12:21.539Z,15.20
2023-04-22T07:13:18.322Z,15.34
2023-04-22T07:14:15.072Z,15.28
2023-04-22T07:15:11.951Z,15.03
2023-04-22T07:16:08.740Z,14.90
2023-04-22T07:17:05.556Z,14.94
2023-04-22T07:18:02.343Z,15.29
2023-04-22T07:18:59.413Z,15.37
2023-04-22T07:19:56.252Z,15.07
2023-04-22T07:20:53.026Z,14.85
2023-04-22T07:21:49.826Z,14.66
2023-04-22T07:22:46.628Z,14.84
2023-04-22T07:23:43.452Z,14.90
2023-04-22T07:24:41.059Z,14.78
2023-04-22T07:25:37.925Z,15.06
2023-04-22T07:26:34.672Z,14.96
2023-04-22T07:27:31.374Z,14.62
2023-04-22T07:28:28.137Z,14.79
2023-04-22T07:29:24.928Z,15.01
2023-04-22T07:30:21.748Z,14.56
2023-04-22T07:31:18.557Z,14.52
2023-04-22T07:32:15.489Z,15.25
2023-04-22T07:33:12.586Z,14.90
2023-04-22T07:34:11.921Z,15.25
2023-04-22T07:35:08.910Z,15.46
2023-04-22T07:36:06.020Z,15.62
2023-04-22T07:37:02.860Z,15.25
2023-04-22T07:37:59.592Z,15.10
2023-04-22T07:38:56.438Z,15.61
2023-04-22T07:39:53.268Z,15.52
2023-04-22T07:40:50.186Z,15.35
2023-04-22T07:41:46.958Z,15.52
2023-04-22T07:42:43.665Z,15.63
2023-04-22T07:43:40.444Z,15.33
2023-04-22T07:44:39.439Z,15.54
2023-04-22T07:45:36.802Z,15.28
2023-04-22T07:46:34.159Z,15.46
2023-04-22T07:47:31.039Z,15.42
2023-04-22T07:48:27.801Z,15.25
2023-04-22T07:49:24.556Z,15.69
2023-04-22T07:50:21.388Z,15.71
2023-04-22T07:51:18.281Z,15.14
2023-04-22T07:52:15.410Z,15.72
2023-04-22T07:53:12.728Z,15.66
2023-04-22T07:54:09.631Z,15.95
2023-04-22T07:55:07.322Z,15.96
2023-04-22T07:56:04.561Z,15.95
2023-04-22T07:57:01.758Z,15.99
2023-04-22T07:58:00.918Z,16.24
2023-04-22T07:58:57.738Z,16.40
2023-04-22T07:59:54.617Z,16.15
2023-04-22T08:00:51.482Z,16.97
2023-04-22T08:01:48.254Z,17.07
2023-04-22T08:02:47.856Z,17.60
2023-04-22T08:03:44.895Z,17.49
2023-04-22T08:04:42.035Z,17.71
2023-04-22T08:05:40.859Z,17.35
2023-04-22T08:06:37.732Z,16.47
2023-04-22T08:07:34.562Z,16.42
2023-04-22T08:08:31.342Z,16.64
2023-04-22T08:09:30.031Z,16.86
2023-04-22T08:10:26.954Z,16.76
2023-04-22T08:11:23.826Z,16.18
2023-04-22T08:12:20.766Z,16.18
2023-04-22T08:13:18.372Z,16.46
2023-04-22T08:14:15.355Z,16.56
2023-04-22T08:15:12.664Z,16.53
2023-04-22T08:16:09.510Z,16.33
2023-04-22T08:17:06.398Z,16.63
2023-04-22T08:18:03.557Z,16.72
2023-04-22T08:19:00.500Z,15.64
2023-04-22T08:19:57.281Z,16.55
2023-04-22T08:20:54.080Z,16.77
2023-04-22T08:21:51.756Z,16.76
2023-04-22T08:22:50.637Z,16.80
2023-04-22T08:23:47.909Z,16.86
2023-04-22T08:24:44.903Z,16.74
2023-04-22T08:25:42.085Z,16.97
2023-04-22T08:26:40.050Z,16.68
2023-04-22T08:27:40.379Z,16.78
2023-04-22T08:28:37.538Z,16.42
2023-04-22T08:29:38.091Z,16.82
2023-04-22T08:30:35.196Z,17.13
2023-04-22T08:31:32.199Z,17.13
2023-04-22T08:32:29.109Z,16.61
2023-04-22T08:33:27.299Z,16.79
2023-04-22T08:34:26.177Z,17.23
2023-04-22T08:35:22.895Z,16.44
2023-04-22T08:36:27.452Z,16.35
2023-04-22T08:37:25.638Z,16.61
2023-04-22T08:38:22.372Z,16.91
2023-04-22T08:39:22.024Z,16.69
2023-04-22T08:40:19.329Z,16.09
2023-04-22T08:41:24.795Z,15.75
2023-04-22T08:42:24.334Z,16.13
2023-04-22T08:43:21.217Z,16.63
2023-04-22T08:44:22.503Z,16.71
2023-04-22T08:45:21.428Z,16.57
2023-04-22T08:46:20.227Z,16.50
2023-04-22T08:47:22.666Z,16.20
2023-04-22T08:48:20.058Z,15.00
2023-04-22T08:49:18.164Z,15.57
2023-04-22T08:50:15.743Z,16.65
2023-04-22T08:51:15.430Z,16.84
2023-04-22T08:52:15.246Z,17.20
2023-04-22T08:53:17.767Z,15.40
2023-04-22T08:54:14.606Z,16.27
2023-04-22T08:55:11.544Z,17.52
2023-04-22T08:56:11.367Z,17.97
2023-04-22T08:57:11.087Z,17.01
2023-04-22T08:58:12.750Z,17.11
2023-04-22T08:59:11.594Z,16.97
2023-04-22T09:00:09.766Z,16.17
2023-04-22T09:01:07.744Z,17.38
2023-04-22T09:02:07.571Z,17.74
2023-04-22T09:03:06.725Z,17.31
2023-04-22T09:04:03.745Z,17.64
2023-04-22T09:05:02.926Z,17.03
2023-04-22T09:06:03.684Z,16.95
2023-04-22T09:07:02.089Z,17.38
2023-04-22T09:07:59.272Z,17.39
2023-04-22T09:08:59.043Z,17.67
2023-04-22T09:09:57.154Z,17.04
2023-04-22T09:10:54.263Z,17.96
2023-04-22T09:11:51.001Z,17.97
2023-04-22T09:12:49.496Z,17.91
2023-04-22T09:13:47.323Z,18.05
2023-04-22T09:14:44.788Z,17.96
2023-04-22T09:15:42.756Z,18.13
2023-04-22T09:16:47.915Z,17.88
2023-04-22T09:17:44.923Z,16.86
2023-04-22T09:18:43.237Z,17.73
2023-04-22T09:19:40.285Z,18.13
2023-04-22T09:20:42.125Z,18.52
2023-04-22T09:21:40.767Z,18.27
2023-04-22T09:22:49.154Z,18.93
2023-04-22T09:23:55.063Z,18.11
2023-04-22T09:24:51.929Z,18.82
2023-04-22T09:25:50.212Z,18.09
2023-04-22T09:26:48.697Z,18.24
2023-04-22T09:27:57.141Z,18.37
2023-04-22T09:28:58.322Z,18.63
2023-04-22T09:29:55.121Z,18.07
2023-04-22T09:30:51.822Z,17.85
2023-04-22T09:31:51.149Z,17.43
2023-04-22T09:32:56.272Z,18.39
2023-04-22T09:33:56.502Z,18.87
2023-04-22T09:34:55.371Z,17.90
2023-04-22T09:35:52.235Z,18.66
2023-04-22T09:36:51.586Z,17.80
2023-04-22T09:37:52.366Z,17.72
2023-04-22T09:38:58.563Z,17.44
2023-04-22T09:39:55.577Z,18.23
2023-04-22T09:40:55.152Z,18.61
2023-04-22T09:41:56.735Z,18.40
2023-04-22T09:42:55.690Z,18.62
2023-04-22T09:43:52.509Z,18.80
2023-04-22T09:44:52.710Z,18.27
2023-04-22T09:45:49.554Z,18.56
2023-04-22T09:46:50.393Z,19.09
2023-04-22T09:47:47.300Z,19.40
2023-04-22T09:48:44.366Z,19.43
2023-04-22T09:49:46.644Z,19.23
2023-04-22T09:50:46.108Z,19.53
2023-04-22T09:51:42.989Z,19.22
2023-04-22T09:52:39.805Z,19.50
2023-04-22T09:53:37.581Z,18.77
2023-04-22T09:54:37.601Z,18.52
2023-04-22T09:55:38.038Z,18.24
2023-04-22T09:56:53.694Z,18.66
2023-04-22T09:57:55.819Z,18.36
2023-04-22T09:58:57.705Z,18.28
2023-04-22T09:59:59.135Z,17.82
2023-04-22T10:00:59.014Z,17.52
2023-04-22T10:02:00.825Z,17.41
2023-04-22T10:02:57.611Z,16.98
2023-04-22T10:03:54.714Z,17.48
2023-04-22T10:04:52.377Z,17.11
2023-04-22T10:05:49.301Z,17.32
2023-04-22T10:06:47.532Z,17.63
2023-04-22T10:07:45.353Z,17.40
2023-04-22T10:08:44.407Z,17.05
2023-04-22T10:09:41.596Z,16.85
2023-04-22T10:10:39.608Z,17.31
2023-04-22T10:11:37.677Z,17.59
2023-04-22T10:12:38.251Z,17.03
2023-04-22T10:13:36.525Z,17.05
2023-04-22T10:14:33.330Z,17.08
2023-04-22T10:15:39.222Z,17.57
2023-04-22T10:16:38.229Z,17.58
2023-04-22T10:17:39.584Z,17.39
2023-04-22T10:18:40.942Z,17.37
2023-04-22T10:19:40.810Z,17.15
2023-04-22T10:20:40.867Z,16.97
2023-04-22T10:21:40.305Z,17.33
2023-04-22T10:22:37.264Z,17.56
2023-04-22T10:23:34.173Z,17.42
2023-04-22T10:24:37.040Z,17.73
2023-04-22T10:25:33.779Z,16.93
2023-04-22T10:26:57.239Z,17.12
2023-04-22T10:28:04.679Z,17.05
2023-04-22T10:29:01.569Z,17.63
2023-04-22T10:29:58.526Z,17.42
2023-04-22T10:30:55.611Z,17.55
2023-04-22T10:32:24.951Z,17.31
2023-04-22T10:33:21.907Z,17.83
2023-04-22T10:34:18.718Z,17.73
2023-04-22T10:35:16.471Z,17.86
2023-04-22T10:36:19.659Z,17.80
2023-04-22T10:37:20.827Z,17.74
2023-04-22T10:38:17.589Z,18.01
2023-04-22T10:39:16.829Z,17.99
2023-04-22T10:40:18.341Z,17.92
2023-04-22T10:41:15.875Z,18.18
2023-04-22T10:42:15.480Z,18.03
2023-04-22T10:43:12.968Z,17.96
2023-04-22T10:44:10.784Z,17.93
2023-04-22T10:45:13.013Z,17.36
2023-04-22T10:46:35.371Z,18.08
2023-04-22T10:47:35.231Z,17.83
2023-04-22T10:48:51.252Z,17.63
2023-04-22T10:49:51.244Z,17.92
2023-04-22T10:50:48.066Z,17.52
2023-04-22T10:51:47.577Z,17.88
2023-04-22T10:52:48.433Z,17.71
2023-04-22T10:53:46.425Z,17.58
2023-04-22T10:54:43.159Z,17.80
2023-04-22T10:55:53.563Z,18.03
2023-04-22T10:57:08.964Z,18.20
2023-04-22T10:58:20.828Z,18.14
2023-04-22T10:59:17.671Z,17.99
2023-04-22T11:00:31.032Z,18.05
2023-04-22T11:01:41.706Z,18.12
2023-04-22T11:02:42.124Z,17.79
2023-04-22T11:03:39.488Z,17.79
2023-04-22T11:04:37.413Z,18.02
2023-04-22T11:05:38.120Z,17.91
2023-04-22T11:06:34.953Z,18.01
2023-04-22T11:07:34.334Z,18.17
2023-04-22T11:08:31.077Z,18.03
2023-04-22T11:09:28.001Z,17.69
2023-04-22T11:10:32.687Z,18.03
2023-04-22T11:11:29.757Z,17.53
2023-04-22T11:12:35.820Z,17.72
2023-04-22T11:13:32.737Z,17.95
2023-04-22T11:14:29.884Z,17.89
2023-04-22T11:15:27.287Z,17.84
2023-04-22T11:16:27.006Z,17.22
2023-04-22T11:17:24.116Z,17.53
2023-04-22T11:18:27.260Z,18.04
2023-04-22T11:19:24.098Z,17.87
2023-04-22T11:20:24.110Z,17.49
2023-04-22T11:21:22.018Z,17.54
2023-04-22T11:22:18.785Z,17.58
2023-04-22T11:23:27.247Z,17.32
2023-04-22T11:24:24.017Z,17.52
2023-04-22T11:25:22.558Z,17.43
2023-04-22T11:26:37.753Z,17.73
2023-04-22T11:27:43.594Z,17.66
2023-04-22T11:28:46.750Z,17.95
2023-04-22T11:29:43.492Z,17.63
2023-04-22T11:30:40.465Z,17.52
2023-04-22T11:31:37.365Z,17.57
2023-04-22T11:32:35.156Z,17.08
2023-04-22T11:33:35.207Z,17.56
2023-04-22T11:34:32.038Z,17.41
2023-04-22T11:35:31.671Z,17.07
2023-04-22T11:36:28.526Z,17.33
2023-04-22T11:37:25.446Z,17.39
2023-04-22T11:38:22.174Z,17.46
2023-04-22T11:39:19.033Z,17.40
2023-04-22T11:40:31.627Z,16.91
2023-04-22T11:41:31.180Z,17.25
2023-04-22T11:42:27.929Z,17.27
2023-04-22T11:43:24.724Z,16.79
2023-04-22T11:44:23.678Z,17.18
2023-04-22T11:45:21.377Z,17.40
2023-04-22T11:46:29.223Z,17.32
2023-04-22T11:47:29.776Z,17.46
2023-04-22T11:48:26.780Z,16.59
2023-04-22T11:49:26.774Z,17.52
2023-04-22T11:50:32.888Z,16.74
2023-04-22T11:51:29.711Z,17.19
2023-04-22T11:52:53.397Z,16.88
2023-04-22T11:53:51.378Z,17.30
2023-04-22T11:54:48.094Z,16.81
2023-04-22T11:55:47.169Z,17.07
2023-04-22T11:56:43.952Z,17.08
2023-04-22T11:57:41.776Z,16.98
2023-04-22T11:58:41.001Z,16.86
2023-04-22T11:59:38.054Z,17.42
2023-04-22T12:00:40.734Z,17.37
2023-04-22T12:01:37.632Z,16.58
2023-04-22T12:02:34.487Z,17.03
2023-04-22T12:03:34.841Z,16.96
2023-04-22T12:04:37.832Z,16.93
2023-04-22T12:05:36.077Z,16.44
2023-04-22T12:06:32.875Z,16.42
2023-04-22T12:07:30.391Z,16.35
2023-04-22T12:08:42.546Z,16.10
2023-04-22T12:09:39.944Z,16.54
2023-04-22T12:10:42.229Z,16.66
2023-04-22T12:11:39.545Z,16.36
2023-04-22T12:12:39.966Z,16.33
2023-04-22T12:13:36.649Z,16.30
2023-04-22T12:14:37.363Z,16.36
2023-04-22T12:15:40.517Z,16.37
2023-04-22T12:16:42.958Z,16.66
2023-04-22T12:17:39.787Z,16.06
2023-04-22T12:18:39.312Z,16.28
2023-04-22T12:19:37.560Z,15.81
2023-04-22T12:20:39.653Z,15.96
2023-04-22T12:21:36.479Z,16.08
2023-04-22T12:22:33.668Z,15.68
2023-04-22T12:23:41.216Z,15.84
2023-04-22T12:24:46.604Z,15.99
2023-04-22T12:25:46.443Z,16.08
2023-04-22T12:26:43.208Z,15.06
2023-04-22T12:27:40.061Z,15.77
2023-04-22T12:28:40.807Z,15.59
2023-04-22T12:29:37.918Z,15.84
2023-04-22T12:30:34.955Z,15.40
2023-04-22T12:31:31.772Z,14.72
2023-04-22T12:32:28.607Z,15.33
2023-04-22T12:33:26.043Z,15.61
2023-04-22T12:34:22.800Z,15.96
2023-04-22T12:35:19.536Z,16.13
2023-04-22T12:36:21.085Z,15.96
2023-04-22T12:37:18.314Z,16.19
2023-04-22T12:38:15.045Z,16.41
2023-04-22T12:39:12.816Z,16.17